sensor_id;sensor_type;location;lat;lon;timestamp;pressure;altitude;pressure_sealevel;temperature;humidity
52949;BME280;38812;50.942;3.644;2022-07-29T00:00:10;101597.19;;;17.76;100.00
52949;BME280;38812;50.942;3.644;2022-07-29T00:02:35;101618.09;;;17.85;100.00
52949;BME280;38812;50.942;3.644;2022-07-29T00:05:02;101619.94;;;17.83;100.00
52949;BME280;38812;50.942;3.644;2022-07-29T00:07:27;101604.50;;;17.71;100.00
52949;BME280;38812;50.942;3.644;2022-07-29T00:09:53;101616.84;;;17.72;100.00
52949;BME280;38812;50.942;3.644;2022-07-29T00:12:20;101610.72;;;17.70;100.00
52949;BME280;38812;50.942;3.644;2022-07-29T00:14:46;101612.72;;;17.63;100.00
52949;BME280;38812;50.942;3.644;2022-07-29T00:17:11;101597.97;;;17.55;100.00
52949;BME280;38812;50.942;3.644;2022-07-29T00:19:37;101602.63;;;17.50;100.00
52949;BME280;38812;50.942;3.644;2022-07-29T00:22:02;101598.34;;;17.45;100.00
52949;BME280;38812;50.942;3.644;2022-07-29T00:24:27;101594.06;;;17.41;100.00
52949;BME280;38812;50.942;3.644;2022-07-29T00:26:53;101598.56;;;17.39;100.00
52949;BME280;38812;50.942;3.644;2022-07-29T00:29:18;101601.56;;;17.30;100.00
52949;BME280;38812;50.942;3.644;2022-07-29T00:31:44;101538.72;;;16.83;100.00
52949;BME280;38812;50.942;3.644;2022-07-29T00:34:09;101589.34;;;17.01;100.00
52949;BME280;38812;50.942;3.644;2022-07-29T00:36:55;101571.31;;;16.86;100.00
52949;BME280;38812;50.942;3.644;2022-07-29T00:39:20;101600.34;;;16.91;100.00
52949;BME280;38812;50.942;3.644;2022-07-29T00:41:46;101593.94;;;16.71;100.00
52949;BME280;38812;50.942;3.644;2022-07-29T00:44:11;101572.09;;;16.65;100.00
52949;BME280;38812;50.942;3.644;2022-07-29T00:46:36;101587.66;;;16.74;100.00
52949;BME280;38812;50.942;3.644;2022-07-29T00:49:02;101561.31;;;16.43;100.00
52949;BME280;38812;50.942;3.644;2022-07-29T00:51:27;101578.19;;;16.40;100.00
52949;BME280;38812;50.942;3.644;2022-07-29T00:53:53;101576.84;;;16.27;100.00
52949;BME280;38812;50.942;3.644;2022-07-29T00:56:19;101581.69;;;16.15;100.00
52949;BME280;38812;50.942;3.644;2022-07-29T00:58:46;101578.31;;;16.09;100.00
52949;BME280;38812;50.942;3.644;2022-07-29T01:01:13;101555.78;;;15.96;100.00
52949;BME280;38812;50.942;3.644;2022-07-29T01:03:38;101559.34;;;15.95;100.00
52949;BME280;38812;50.942;3.644;2022-07-29T01:06:04;101571.69;;;15.96;100.00
52949;BME280;38812;50.942;3.644;2022-07-29T01:08:31;101580.47;;;15.98;100.00
52949;BME280;38812;50.942;3.644;2022-07-29T01:10:58;101563.41;;;15.79;100.00
52949;BME280;38812;50.942;3.644;2022-07-29T01:13:25;101574.53;;;15.90;100.00
52949;BME280;38812;50.942;3.644;2022-07-29T01:15:54;101571.81;;;15.92;100.00
52949;BME280;38812;50.942;3.644;2022-07-29T01:18:28;101576.22;;;15.93;100.00
52949;BME280;38812;50.942;3.644;2022-07-29T01:21:15;101560.69;;;15.81;100.00
52949;BME280;38812;50.942;3.644;2022-07-29T01:26:59;101572.81;;;15.60;100.00
52949;BME280;38812;50.942;3.644;2022-07-29T01:29:49;101559.47;;;15.33;100.00
52949;BME280;38812;50.942;3.644;2022-07-29T01:32:19;101555.28;;;15.25;100.00
52949;BME280;38812;50.942;3.644;2022-07-29T01:34:53;101569.72;;;15.15;100.00
52949;BME280;38812;50.942;3.644;2022-07-29T01:37:54;101551.91;;;15.20;100.00
52949;BME280;38812;50.942;3.644;2022-07-29T01:40:48;101556.06;;;14.97;100.00
52949;BME280;38812;50.942;3.644;2022-07-29T01:43:17;101533.75;;;14.75;100.00
52949;BME280;38812;50.942;3.644;2022-07-29T01:45:58;101523.94;;;14.80;100.00
52949;BME280;38812;50.942;3.644;2022-07-29T01:48:57;101534.56;;;14.79;100.00
52949;BME280;38812;50.942;3.644;2022-07-29T01:51:25;101540.72;;;14.79;100.00
52949;BME280;38812;50.942;3.644;2022-07-29T01:56:38;101547.53;;;14.55;100.00
52949;BME280;38812;50.942;3.644;2022-07-29T01:59:05;101551.16;;;14.51;100.00
52949;BME280;38812;50.942;3.644;2022-07-29T02:01:33;101533.59;;;14.50;100.00
52949;BME280;38812;50.942;3.644;2022-07-29T02:04:03;101516.13;;;14.43;100.00
52949;BME280;38812;50.942;3.644;2022-07-29T02:06:29;101541.44;;;14.52;100.00
52949;BME280;38812;50.942;3.644;2022-07-29T02:08:58;101539.94;;;14.43;100.00
52949;BME280;38812;50.942;3.644;2022-07-29T02:11:24;101507.56;;;14.32;100.00
52949;BME280;38812;50.942;3.644;2022-07-29T02:13:52;101513.25;;;14.17;100.00
52949;BME280;38812;50.942;3.644;2022-07-29T02:16:20;101536.53;;;14.36;100.00
52949;BME280;38812;50.942;3.644;2022-07-29T02:18:47;101535.94;;;14.25;100.00
52949;BME280;38812;50.942;3.644;2022-07-29T02:21:20;101509.19;;;14.03;100.00
52949;BME280;38812;50.942;3.644;2022-07-29T02:23:46;101536.06;;;14.21;100.00
52949;BME280;38812;50.942;3.644;2022-07-29T02:26:13;101514.28;;;14.11;100.00
52949;BME280;38812;50.942;3.644;2022-07-29T02:28:40;101513.47;;;14.07;100.00
52949;BME280;38812;50.942;3.644;2022-07-29T02:31:06;101521.22;;;14.15;100.00
52949;BME280;38812;50.942;3.644;2022-07-29T02:33:32;101504.09;;;13.96;100.00
52949;BME280;38812;50.942;3.644;2022-07-29T02:35:59;101498.47;;;13.74;100.00
52949;BME280;38812;50.942;3.644;2022-07-29T02:38:27;101458.66;;;13.45;100.00
52949;BME280;38812;50.942;3.644;2022-07-29T02:41:16;101493.38;;;13.65;100.00
52949;BME280;38812;50.942;3.644;2022-07-29T02:43:45;101506.50;;;13.68;100.00
52949;BME280;38812;50.942;3.644;2022-07-29T02:46:15;101516.09;;;13.72;100.00
52949;BME280;38812;50.942;3.644;2022-07-29T02:48:58;101497.84;;;13.63;100.00
52949;BME280;38812;50.942;3.644;2022-07-29T02:51:33;101496.25;;;13.56;100.00
52949;BME280;38812;50.942;3.644;2022-07-29T02:54:05;101517.09;;;13.66;100.00
52949;BME280;38812;50.942;3.644;2022-07-29T02:56:33;101501.38;;;13.63;100.00
52949;BME280;38812;50.942;3.644;2022-07-29T02:59:03;101511.66;;;13.74;100.00
52949;BME280;38812;50.942;3.644;2022-07-29T03:01:31;101502.16;;;13.65;100.00
52949;BME280;38812;50.942;3.644;2022-07-29T03:04:01;101520.44;;;13.75;100.00
52949;BME280;38812;50.942;3.644;2022-07-29T03:06:28;101516.47;;;13.57;100.00
52949;BME280;38812;50.942;3.644;2022-07-29T03:08:54;101506.75;;;13.59;100.00
52949;BME280;38812;50.942;3.644;2022-07-29T03:11:20;101494.44;;;13.58;100.00
52949;BME280;38812;50.942;3.644;2022-07-29T03:13:46;101447.75;;;13.21;100.00
52949;BME280;38812;50.942;3.644;2022-07-29T03:16:12;101468.75;;;13.27;100.00
52949;BME280;38812;50.942;3.644;2022-07-29T03:18:38;101516.66;;;13.48;100.00
52949;BME280;38812;50.942;3.644;2022-07-29T03:21:04;101517.72;;;13.41;100.00
52949;BME280;38812;50.942;3.644;2022-07-29T03:23:29;101477.84;;;13.13;100.00
52949;BME280;38812;50.942;3.644;2022-07-29T03:25:55;101494.50;;;13.16;100.00
52949;BME280;38812;50.942;3.644;2022-07-29T03:28:21;101506.56;;;13.26;100.00
52949;BME280;38812;50.942;3.644;2022-07-29T03:30:48;101475.16;;;13.14;100.00
52949;BME280;38812;50.942;3.644;2022-07-29T03:33:13;101506.50;;;13.29;100.00
52949;BME280;38812;50.942;3.644;2022-07-29T03:35:38;101482.25;;;13.12;100.00
52949;BME280;38812;50.942;3.644;2022-07-29T03:38:04;101466.75;;;12.97;100.00
52949;BME280;38812;50.942;3.644;2022-07-29T03:40:38;101470.25;;;12.97;100.00
52949;BME280;38812;50.942;3.644;2022-07-29T03:43:07;101496.19;;;13.20;100.00
52949;BME280;38812;50.942;3.644;2022-07-29T03:45:35;101514.69;;;13.19;100.00
52949;BME280;38812;50.942;3.644;2022-07-29T03:48:06;101497.38;;;13.02;100.00
52949;BME280;38812;50.942;3.644;2022-07-29T03:50:33;101503.41;;;13.09;100.00
52949;BME280;38812;50.942;3.644;2022-07-29T03:53:00;101476.63;;;12.86;100.00
52949;BME280;38812;50.942;3.644;2022-07-29T03:55:28;101471.34;;;12.87;100.00
52949;BME280;38812;50.942;3.644;2022-07-29T03:57:55;101476.56;;;12.89;100.00
52949;BME280;38812;50.942;3.644;2022-07-29T04:00:23;101491.63;;;12.84;100.00
52949;BME280;38812;50.942;3.644;2022-07-29T04:02:49;101482.91;;;12.79;100.00
52949;BME280;38812;50.942;3.644;2022-07-29T04:05:15;101442.16;;;12.53;100.00
52949;BME280;38812;50.942;3.644;2022-07-29T04:07:45;101481.16;;;12.79;100.00
52949;BME280;38812;50.942;3.644;2022-07-29T04:10:10;101480.13;;;12.86;100.00
52949;BME280;38812;50.942;3.644;2022-07-29T04:12:36;101467.34;;;12.68;100.00
52949;BME280;38812;50.942;3.644;2022-07-29T04:15:05;101439.78;;;12.38;100.00
52949;BME280;38812;50.942;3.644;2022-07-29T04:17:30;101452.06;;;12.39;100.00
52949;BME280;38812;50.942;3.644;2022-07-29T04:19:56;101480.88;;;12.50;100.00
52949;BME280;38812;50.942;3.644;2022-07-29T04:22:21;101479.94;;;12.52;100.00
52949;BME280;38812;50.942;3.644;2022-07-29T04:24:46;101427.72;;;12.26;100.00
52949;BME280;38812;50.942;3.644;2022-07-29T04:27:12;101447.72;;;12.36;100.00
52949;BME280;38812;50.942;3.644;2022-07-29T04:29:37;101444.22;;;12.36;100.00
52949;BME280;38812;50.942;3.644;2022-07-29T04:32:03;101454.66;;;12.42;100.00
52949;BME280;38812;50.942;3.644;2022-07-29T04:34:28;101476.28;;;12.59;100.00
52949;BME280;38812;50.942;3.644;2022-07-29T04:36:54;101485.91;;;12.62;100.00
52949;BME280;38812;50.942;3.644;2022-07-29T04:39:20;101491.09;;;12.66;100.00
52949;BME280;38812;50.942;3.644;2022-07-29T04:41:45;101470.94;;;12.62;100.00
52949;BME280;38812;50.942;3.644;2022-07-29T04:44:11;101493.41;;;12.82;100.00
52949;BME280;38812;50.942;3.644;2022-07-29T04:46:36;101476.06;;;12.72;100.00
52949;BME280;38812;50.942;3.644;2022-07-29T04:49:03;101493.41;;;12.82;100.00
52949;BME280;38812;50.942;3.644;2022-07-29T04:51:28;101473.28;;;12.78;100.00
52949;BME280;38812;50.942;3.644;2022-07-29T04:53:53;101476.63;;;12.86;100.00
52949;BME280;38812;50.942;3.644;2022-07-29T04:56:19;101506.00;;;13.11;100.00
52949;BME280;38812;50.942;3.644;2022-07-29T04:58:44;101458.97;;;12.91;100.00
52949;BME280;38812;50.942;3.644;2022-07-29T05:01:10;101488.34;;;13.16;100.00
52949;BME280;38812;50.942;3.644;2022-07-29T05:03:35;101502.84;;;13.36;100.00
52949;BME280;38812;50.942;3.644;2022-07-29T05:06:00;101514.50;;;13.65;100.00
52949;BME280;38812;50.942;3.644;2022-07-29T05:08:26;101522.75;;;13.88;100.00
52949;BME280;38812;50.942;3.644;2022-07-29T05:10:51;101502.72;;;13.80;100.00
52949;BME280;38812;50.942;3.644;2022-07-29T05:13:17;101510.59;;;13.83;100.00
52949;BME280;38812;50.942;3.644;2022-07-29T05:15:42;101514.09;;;13.83;100.00
52949;BME280;38812;50.942;3.644;2022-07-29T05:18:07;101540.25;;;13.94;100.00
52949;BME280;38812;50.942;3.644;2022-07-29T05:20:33;101532.81;;;14.10;100.00
52949;BME280;38812;50.942;3.644;2022-07-29T05:23:00;101536.16;;;14.16;100.00
52949;BME280;38812;50.942;3.644;2022-07-29T05:25:27;101545.66;;;14.25;100.00
52949;BME280;38812;50.942;3.644;2022-07-29T05:27:52;101525.91;;;14.38;100.00
52949;BME280;38812;50.942;3.644;2022-07-29T05:30:18;101552.94;;;14.83;100.00
52949;BME280;38812;50.942;3.644;2022-07-29T05:32:44;101548.06;;;15.61;100.00
52949;BME280;38812;50.942;3.644;2022-07-29T05:35:10;101605.22;;;17.03;100.00
52949;BME280;38812;50.942;3.644;2022-07-29T05:37:36;101599.66;;;17.80;100.00
52949;BME280;38812;50.942;3.644;2022-07-29T05:40:03;101611.91;;;18.50;100.00
52949;BME280;38812;50.942;3.644;2022-07-29T05:42:29;101611.34;;;18.84;100.00
52949;BME280;38812;50.942;3.644;2022-07-29T05:44:55;101592.22;;;19.35;100.00
52949;BME280;38812;50.942;3.644;2022-07-29T05:47:21;101616.63;;;20.39;100.00
52949;BME280;38812;50.942;3.644;2022-07-29T05:49:46;101619.72;;;20.48;100.00
52949;BME280;38812;50.942;3.644;2022-07-29T05:52:12;101611.31;;;20.20;100.00
52949;BME280;38812;50.942;3.644;2022-07-29T05:54:38;101618.88;;;21.00;100.00
52949;BME280;38812;50.942;3.644;2022-07-29T05:57:04;101620.72;;;21.81;100.00
52949;BME280;38812;50.942;3.644;2022-07-29T05:59:31;101609.72;;;21.38;100.00
52949;BME280;38812;50.942;3.644;2022-07-29T06:01:57;101608.78;;;21.71;100.00
52949;BME280;38812;50.942;3.644;2022-07-29T06:04:22;101635.59;;;20.86;100.00
52949;BME280;38812;50.942;3.644;2022-07-29T06:06:48;101595.47;;;20.53;100.00
52949;BME280;38812;50.942;3.644;2022-07-29T06:09:13;101619.63;;;19.95;100.00
52949;BME280;38812;50.942;3.644;2022-07-29T06:11:39;101631.31;;;19.74;100.00
52949;BME280;38812;50.942;3.644;2022-07-29T06:14:04;101620.59;;;19.36;100.00
52949;BME280;38812;50.942;3.644;2022-07-29T06:16:29;101631.41;;;19.13;100.00
52949;BME280;38812;50.942;3.644;2022-07-29T06:18:55;101624.88;;;18.59;100.00
52949;BME280;38812;50.942;3.644;2022-07-29T06:21:20;101615.22;;;18.35;100.00
52949;BME280;38812;50.942;3.644;2022-07-29T06:23:45;101642.09;;;18.49;100.00
52949;BME280;38812;50.942;3.644;2022-07-29T06:26:11;101643.84;;;18.50;100.00
52949;BME280;38812;50.942;3.644;2022-07-29T06:28:36;101653.81;;;18.87;100.00
52949;BME280;38812;50.942;3.644;2022-07-29T06:31:02;101623.91;;;18.82;100.00
52949;BME280;38812;50.942;3.644;2022-07-29T06:33:27;101652.31;;;19.02;100.00
52949;BME280;38812;50.942;3.644;2022-07-29T06:35:53;101634.19;;;18.90;100.00
52949;BME280;38812;50.942;3.644;2022-07-29T06:38:18;101631.41;;;19.13;100.00
52949;BME280;38812;50.942;3.644;2022-07-29T06:40:44;101653.69;;;19.31;100.00
52949;BME280;38812;50.942;3.644;2022-07-29T06:43:33;101641.75;;;19.60;100.00
52949;BME280;38812;50.942;3.644;2022-07-29T06:46:02;101653.50;;;19.74;100.00
52949;BME280;38812;50.942;3.644;2022-07-29T06:48:28;101649.91;;;19.94;100.00
52949;BME280;38812;50.942;3.644;2022-07-29T06:50:54;101644.25;;;20.19;100.00
52949;BME280;38812;50.942;3.644;2022-07-29T06:53:20;101655.22;;;20.32;100.00
52949;BME280;38812;50.942;3.644;2022-07-29T06:55:45;101653.06;;;20.40;100.00
52949;BME280;38812;50.942;3.644;2022-07-29T06:58:11;101649.22;;;20.45;100.00
52949;BME280;38812;50.942;3.644;2022-07-29T07:00:37;101661.41;;;20.51;100.00
52949;BME280;38812;50.942;3.644;2022-07-29T07:03:03;101665.03;;;20.84;100.00
52949;BME280;38812;50.942;3.644;2022-07-29T07:05:28;101655.00;;;20.90;100.00
52949;BME280;38812;50.942;3.644;2022-07-29T07:07:54;101664.66;;;21.09;100.00
52949;BME280;38812;50.942;3.644;2022-07-29T07:10:19;101664.25;;;21.17;100.00
52949;BME280;38812;50.942;3.644;2022-07-29T07:12:44;101664.81;;;21.06;100.00
52949;BME280;38812;50.942;3.644;2022-07-29T07:15:10;101645.56;;;20.82;100.00
52949;BME280;38812;50.942;3.644;2022-07-29T07:17:35;101661.91;;;20.76;100.00
52949;BME280;38812;50.942;3.644;2022-07-29T07:20:03;101662.00;;;20.39;100.00
52949;BME280;38812;50.942;3.644;2022-07-29T07:22:29;101661.00;;;20.23;100.00
52949;BME280;38812;50.942;3.644;2022-07-29T07:24:55;101670.22;;;20.15;100.00
52949;BME280;38812;50.942;3.644;2022-07-29T07:27:20;101677.94;;;20.22;100.00
52949;BME280;38812;50.942;3.644;2022-07-29T07:29:46;101653.59;;;20.10;100.00
52949;BME280;38812;50.942;3.644;2022-07-29T07:32:11;101651.03;;;20.45;100.00
52949;BME280;38812;50.942;3.644;2022-07-29T07:34:38;101646.03;;;20.56;100.00
52949;BME280;38812;50.942;3.644;2022-07-29T07:37:04;101618.56;;;20.54;100.00
52949;BME280;38812;50.942;3.644;2022-07-29T07:39:29;101640.72;;;20.73;100.00
52949;BME280;38812;50.942;3.644;2022-07-29T07:41:54;101656.72;;;21.08;100.00
52949;BME280;38812;50.942;3.644;2022-07-29T07:44:20;101657.19;;;21.33;100.00
52949;BME280;38812;50.942;3.644;2022-07-29T07:46:45;101664.34;;;21.66;100.00
52949;BME280;38812;50.942;3.644;2022-07-29T07:49:10;101661.78;;;21.80;100.00
52949;BME280;38812;50.942;3.644;2022-07-29T07:51:36;101657.47;;;21.93;100.00
52949;BME280;38812;50.942;3.644;2022-07-29T07:54:01;101659.97;;;21.80;100.00
52949;BME280;38812;50.942;3.644;2022-07-29T07:56:27;101660.84;;;21.81;100.00
52949;BME280;38812;50.942;3.644;2022-07-29T07:58:52;101665.34;;;21.96;100.00
52949;BME280;38812;50.942;3.644;2022-07-29T08:01:17;101646.34;;;21.85;100.00
52949;BME280;38812;50.942;3.644;2022-07-29T08:03:44;101678.16;;;22.22;100.00
52949;BME280;38812;50.942;3.644;2022-07-29T08:06:10;101661.03;;;22.09;100.00
52949;BME280;38812;50.942;3.644;2022-07-29T08:08:35;101679.63;;;22.44;100.00
52949;BME280;38812;50.942;3.644;2022-07-29T08:11:01;101650.75;;;21.86;100.00
52949;BME280;38812;50.942;3.644;2022-07-29T08:13:28;101670.97;;;22.39;100.00
52949;BME280;38812;50.942;3.644;2022-07-29T08:15:55;101648.38;;;22.29;100.00
52949;BME280;38812;50.942;3.644;2022-07-29T08:18:29;101660.88;;;22.44;100.00
52949;BME280;38812;50.942;3.644;2022-07-29T08:20:55;101677.75;;;22.60;100.00
52949;BME280;38812;50.942;3.644;2022-07-29T08:23:21;101679.56;;;22.91;93.76
52949;BME280;38812;50.942;3.644;2022-07-29T08:25:46;101676.28;;;23.16;99.15
52949;BME280;38812;50.942;3.644;2022-07-29T08:28:12;101682.09;;;23.52;91.82
52949;BME280;38812;50.942;3.644;2022-07-29T08:30:37;101674.31;;;23.62;90.16
52949;BME280;38812;50.942;3.644;2022-07-29T08:33:03;101663.47;;;23.92;88.50
52949;BME280;38812;50.942;3.644;2022-07-29T08:35:28;101671.47;;;24.35;82.86
52949;BME280;38812;50.942;3.644;2022-07-29T08:37:54;101679.13;;;25.20;75.14
52949;BME280;38812;50.942;3.644;2022-07-29T08:40:20;101644.56;;;25.90;74.23
52949;BME280;38812;50.942;3.644;2022-07-29T08:42:46;101684.25;;;26.96;67.85
52949;BME280;38812;50.942;3.644;2022-07-29T08:45:11;101680.53;;;27.32;66.40
52949;BME280;38812;50.942;3.644;2022-07-29T08:47:38;101679.38;;;26.77;66.31
52949;BME280;38812;50.942;3.644;2022-07-29T08:50:08;101685.28;;;27.28;64.65
52949;BME280;38812;50.942;3.644;2022-07-29T08:52:36;101675.28;;;28.20;59.25
52949;BME280;38812;50.942;3.644;2022-07-29T08:55:03;101688.34;;;27.70;57.53
52949;BME280;38812;50.942;3.644;2022-07-29T08:57:29;101685.25;;;27.63;57.13
52949;BME280;38812;50.942;3.644;2022-07-29T08:59:57;101678.28;;;27.15;56.49
52949;BME280;38812;50.942;3.644;2022-07-29T09:02:28;101669.56;;;27.00;60.00
52949;BME280;38812;50.942;3.644;2022-07-29T09:04:54;101666.78;;;26.89;59.68
52949;BME280;38812;50.942;3.644;2022-07-29T09:07:20;101686.16;;;27.18;59.28
52949;BME280;38812;50.942;3.644;2022-07-29T09:09:46;101685.50;;;27.72;57.14
52949;BME280;38812;50.942;3.644;2022-07-29T09:12:12;101665.59;;;28.06;57.65
52949;BME280;38812;50.942;3.644;2022-07-29T09:14:40;101644.13;;;27.93;52.75
52949;BME280;38812;50.942;3.644;2022-07-29T09:17:06;101654.22;;;28.46;52.94
52949;BME280;38812;50.942;3.644;2022-07-29T09:19:35;101658.91;;;28.44;50.64
52949;BME280;38812;50.942;3.644;2022-07-29T09:22:03;101673.25;;;28.55;50.13
52949;BME280;38812;50.942;3.644;2022-07-29T09:27:26;101682.34;;;29.07;50.03
52949;BME280;38812;50.942;3.644;2022-07-29T09:29:58;101674.69;;;29.54;50.01
52949;BME280;38812;50.942;3.644;2022-07-29T09:32:24;101680.38;;;29.51;46.96
52949;BME280;38812;50.942;3.644;2022-07-29T09:34:51;101650.53;;;30.12;48.22
52949;BME280;38812;50.942;3.644;2022-07-29T09:37:36;101674.66;;;29.44;49.39
52949;BME280;38812;50.942;3.644;2022-07-29T09:40:11;101657.47;;;29.34;49.60
52949;BME280;38812;50.942;3.644;2022-07-29T09:42:37;101652.78;;;29.36;47.38
52949;BME280;38812;50.942;3.644;2022-07-29T09:45:02;101658.59;;;28.90;47.06
52949;BME280;38812;50.942;3.644;2022-07-29T09:47:44;101660.44;;;29.31;48.37
52949;BME280;38812;50.942;3.644;2022-07-29T09:50:11;101677.75;;;28.98;48.54
52949;BME280;38812;50.942;3.644;2022-07-29T09:52:51;101678.91;;;29.26;48.02
52949;BME280;38812;50.942;3.644;2022-07-29T09:55:17;101652.44;;;29.81;47.46
52949;BME280;38812;50.942;3.644;2022-07-29T09:57:43;101658.72;;;29.30;48.68
52949;BME280;38812;50.942;3.644;2022-07-29T10:00:15;101683.72;;;28.38;48.70
52949;BME280;38812;50.942;3.644;2022-07-29T10:02:42;101659.19;;;28.29;51.24
52949;BME280;38812;50.942;3.644;2022-07-29T10:05:22;101673.19;;;28.23;50.46
52949;BME280;38812;50.942;3.644;2022-07-29T10:07:54;101651.34;;;28.26;50.17
52949;BME280;38812;50.942;3.644;2022-07-29T10:12:59;101653.25;;;28.47;49.42
52949;BME280;38812;50.942;3.644;2022-07-29T10:15:27;101629.66;;;28.70;47.36
52949;BME280;38812;50.942;3.644;2022-07-29T10:17:55;101646.78;;;29.12;47.45
52949;BME280;38812;50.942;3.644;2022-07-29T10:20:21;101666.63;;;29.63;47.11
52949;BME280;38812;50.942;3.644;2022-07-29T10:22:49;101665.25;;;29.48;46.81
52949;BME280;38812;50.942;3.644;2022-07-29T10:25:16;101660.91;;;29.15;45.31
52949;BME280;38812;50.942;3.644;2022-07-29T10:27:42;101671.50;;;28.11;47.35
52949;BME280;38812;50.942;3.644;2022-07-29T10:30:08;101650.13;;;27.97;49.07
52949;BME280;38812;50.942;3.644;2022-07-29T10:32:49;101675.22;;;27.66;49.86
52949;BME280;38812;50.942;3.644;2022-07-29T10:46:24;101648.91;;;25.16;57.82
52949;BME280;38812;50.942;3.644;2022-07-29T10:49:10;101674.72;;;25.06;57.89
52949;BME280;38812;50.942;3.644;2022-07-29T10:59:42;101656.22;;;25.27;58.85
52949;BME280;38812;50.942;3.644;2022-07-29T11:05:09;101666.59;;;26.08;57.30
52949;BME280;38812;50.942;3.644;2022-07-29T11:07:36;101653.78;;;26.11;58.57
52949;BME280;38812;50.942;3.644;2022-07-29T11:15:03;101674.63;;;26.57;53.49
52949;BME280;38812;50.942;3.644;2022-07-29T11:20:40;101686.69;;;27.45;51.95
52949;BME280;38812;50.942;3.644;2022-07-29T11:23:34;101681.97;;;27.71;50.67
52949;BME280;38812;50.942;3.644;2022-07-29T11:26:18;101666.88;;;27.69;50.00
52949;BME280;38812;50.942;3.644;2022-07-29T11:31:34;101675.94;;;27.68;50.13
52949;BME280;38812;50.942;3.644;2022-07-29T11:34:28;101677.13;;;27.97;47.80
52949;BME280;38812;50.942;3.644;2022-07-29T11:39:35;101673.31;;;28.22;47.64
52949;BME280;38812;50.942;3.644;2022-07-29T11:44:58;101633.50;;;29.29;45.79
52949;BME280;38812;50.942;3.644;2022-07-29T11:47:25;101672.66;;;29.77;43.65
52949;BME280;38812;50.942;3.644;2022-07-29T11:49:53;101662.81;;;29.45;44.61
52949;BME280;38812;50.942;3.644;2022-07-29T11:52:20;101679.38;;;29.52;43.59
52949;BME280;38812;50.942;3.644;2022-07-29T11:54:48;101660.56;;;29.50;44.06
52949;BME280;38812;50.942;3.644;2022-07-29T11:57:18;101667.56;;;29.32;44.33
52949;BME280;38812;50.942;3.644;2022-07-29T11:59:46;101689.22;;;28.90;43.60
52949;BME280;38812;50.942;3.644;2022-07-29T12:02:12;101678.84;;;29.37;44.01
52949;BME280;38812;50.942;3.644;2022-07-29T12:04:55;101678.19;;;29.03;43.16
52949;BME280;38812;50.942;3.644;2022-07-29T12:07:31;101680.81;;;28.61;45.00
52949;BME280;38812;50.942;3.644;2022-07-29T12:09:57;101677.63;;;28.13;45.53
52949;BME280;38812;50.942;3.644;2022-07-29T12:12:22;101679.06;;;27.28;47.49
52949;BME280;38812;50.942;3.644;2022-07-29T12:14:48;101683.03;;;26.76;48.16
52949;BME280;38812;50.942;3.644;2022-07-29T12:17:30;101665.91;;;26.29;47.78
52949;BME280;38812;50.942;3.644;2022-07-29T12:19:57;101657.97;;;26.15;49.08
52949;BME280;38812;50.942;3.644;2022-07-29T12:22:29;101664.13;;;26.05;49.98
52949;BME280;38812;50.942;3.644;2022-07-29T12:25:01;101686.53;;;26.42;49.71
52949;BME280;38812;50.942;3.644;2022-07-29T12:27:27;101671.22;;;26.66;50.67
52949;BME280;38812;50.942;3.644;2022-07-29T12:30:01;101665.78;;;27.71;48.11
52949;BME280;38812;50.942;3.644;2022-07-29T12:32:32;101659.56;;;28.36;44.01
52949;BME280;38812;50.942;3.644;2022-07-29T12:34:59;101675.34;;;28.41;43.70
52949;BME280;38812;50.942;3.644;2022-07-29T12:37:27;101668.41;;;28.59;45.10
52949;BME280;38812;50.942;3.644;2022-07-29T12:39:53;101651.56;;;28.35;45.24
52949;BME280;38812;50.942;3.644;2022-07-29T12:42:18;101675.31;;;27.64;45.39
52949;BME280;38812;50.942;3.644;2022-07-29T12:44:45;101673.69;;;27.28;47.55
52949;BME280;38812;50.942;3.644;2022-07-29T12:47:11;101671.03;;;27.84;46.71
52949;BME280;38812;50.942;3.644;2022-07-29T12:49:36;101645.81;;;28.60;44.34
52949;BME280;38812;50.942;3.644;2022-07-29T12:52:25;101664.56;;;28.18;45.21
52949;BME280;38812;50.942;3.644;2022-07-29T12:54:51;101667.00;;;28.44;44.82
52949;BME280;38812;50.942;3.644;2022-07-29T12:57:16;101663.66;;;29.25;44.10
52949;BME280;38812;50.942;3.644;2022-07-29T12:59:42;101638.63;;;29.23;44.11
52949;BME280;38812;50.942;3.644;2022-07-29T13:02:20;101650.47;;;29.83;42.14
52949;BME280;38812;50.942;3.644;2022-07-29T13:04:56;101659.13;;;30.07;42.73
52949;BME280;38812;50.942;3.644;2022-07-29T13:07:29;101661.69;;;30.09;42.42
52949;BME280;38812;50.942;3.644;2022-07-29T13:10:12;101668.16;;;29.36;41.93
52949;BME280;38812;50.942;3.644;2022-07-29T13:12:38;101670.50;;;28.98;43.54
52949;BME280;38812;50.942;3.644;2022-07-29T13:15:14;101648.56;;;29.02;42.24
52949;BME280;38812;50.942;3.644;2022-07-29T13:17:42;101661.56;;;28.87;43.55
52949;BME280;38812;50.942;3.644;2022-07-29T13:20:09;101650.81;;;28.64;44.52
52949;BME280;38812;50.942;3.644;2022-07-29T13:22:38;101667.41;;;28.17;45.78
52949;BME280;38812;50.942;3.644;2022-07-29T13:25:03;101668.31;;;27.73;45.84
52949;BME280;38812;50.942;3.644;2022-07-29T13:27:33;101645.72;;;28.07;46.33
52949;BME280;38812;50.942;3.644;2022-07-29T13:30:01;101661.28;;;28.26;45.81
52949;BME280;38812;50.942;3.644;2022-07-29T13:32:28;101662.19;;;27.82;45.51
52949;BME280;38812;50.942;3.644;2022-07-29T13:34:59;101674.06;;;27.57;45.96
52949;BME280;38812;50.942;3.644;2022-07-29T13:37:25;101647.34;;;26.96;47.33